Terminal Aerodrome Forecast
Issued by NWS

Home | Current Version | Previous Version | Text Only | Print | Product List | Glossary On
Versions: 1 2 3 4 5 6 7 8 9 10 11 12 13 14 15 16 17 18 19 20 21
000
FTUS43 KIND 242320
TAFBMG
TAF
KBMG 242320Z 2500/2524 06005KT P6SM SCT150
     FM251000 09005KT 3SM BR SCT008
      TEMPO 2510/2513 1 1/2SM BR
     FM251400 10004KT P6SM SCT150
     FM251800 00000KT P6SM SCT200
      AMD LTD TO CLD VIS AND WIND 2501/2513=

USA.gov is the U.S. government's official web portal to all federal, state and local government web resources and services.